createdAt,value
2023-02-13T00:01:49.274Z,101146.97
2023-02-13T00:04:18.930Z,101144.49
2023-02-13T00:06:51.518Z,101145.91
2023-02-13T00:09:20.137Z,101142.73
2023-02-13T00:11:58.379Z,101137.11
2023-02-13T00:14:33.674Z,101135.52
2023-02-13T00:17:02.995Z,101132.00
2023-02-13T00:19:38.341Z,101124.79
2023-02-13T00:22:10.125Z,101124.80
2023-02-13T00:24:41.794Z,101125.33
2023-02-13T00:27:12.222Z,101119.54
2023-02-13T00:29:44.405Z,101123.41
2023-02-13T00:32:20.454Z,101122.54
2023-02-13T00:35:08.616Z,101117.98
2023-02-13T00:37:37.639Z,101121.31
2023-02-13T00:40:07.965Z,101117.98
2023-02-13T00:42:38.373Z,101114.48
2023-02-13T00:45:16.266Z,101112.02
2023-02-13T00:47:44.882Z,101105.69
2023-02-13T00:50:18.724Z,101103.56
2023-02-13T00:52:51.549Z,101101.11
2023-02-13T00:55:21.769Z,101100.97
2023-02-13T00:57:50.562Z,101090.59
2023-02-13T01:00:21.059Z,101088.33
2023-02-13T01:02:49.876Z,101092.55
2023-02-13T01:05:23.635Z,101089.75
2023-02-13T01:07:52.990Z,101087.12
2023-02-13T01:10:21.802Z,101087.48
2023-02-13T01:12:50.707Z,101088.20
2023-02-13T01:15:19.501Z,101088.38
2023-02-13T01:17:49.534Z,101078.35
2023-02-13T01:20:18.558Z,101079.59
2023-02-13T01:22:49.034Z,101073.80
2023-02-13T01:25:18.787Z,101075.92
2023-02-13T01:27:47.744Z,101073.12
2023-02-13T01:30:21.441Z,101069.59
2023-02-13T01:32:53.823Z,101068.02
2023-02-13T01:35:22.250Z,101070.14
2023-02-13T01:37:54.744Z,101069.61
2023-02-13T01:40:26.340Z,101067.86
2023-02-13T01:42:55.872Z,101066.97
2023-02-13T01:45:27.009Z,101069.63
2023-02-13T01:48:01.330Z,101066.64
2023-02-13T01:50:43.645Z,101065.40
2023-02-13T01:53:56.570Z,101060.83
2023-02-13T01:56:38.212Z,101055.73
2023-02-13T01:59:16.484Z,101050.98
2023-02-13T02:01:46.477Z,101051.51
2023-02-13T02:04:34.566Z,101048.31
2023-02-13T02:07:29.772Z,101043.20
2023-02-13T02:10:08.545Z,101043.21
2023-02-13T02:12:52.922Z,101037.23
2023-02-13T02:15:24.878Z,101040.92
2023-02-13T02:17:57.129Z,101038.64
2023-02-13T02:20:56.309Z,101040.39
2023-02-13T02:23:31.617Z,101040.39
2023-02-13T02:26:20.342Z,101036.69
2023-02-13T02:29:07.656Z,101037.57
2023-02-13T02:32:08.796Z,101042.84
2023-02-13T02:34:57.453Z,101038.77
2023-02-13T02:38:08.345Z,101038.23
2023-02-13T02:41:04.456Z,101032.06
2023-02-13T02:43:54.437Z,101031.17
2023-02-13T02:47:17.500Z,101027.48
2023-02-13T02:50:07.462Z,101026.40
2023-02-13T02:52:58.605Z,101027.44
2023-02-13T02:55:39.232Z,101024.60
2023-02-13T02:58:39.903Z,101029.17
2023-02-13T03:01:35.402Z,101020.17
2023-02-13T03:04:50.181Z,101016.13
2023-02-13T03:07:19.644Z,101012.40
2023-02-13T03:10:12.350Z,101012.74
2023-02-13T03:13:05.776Z,101010.98
2023-02-13T03:16:01.157Z,101007.28
2023-02-13T03:18:59.050Z,101008.17
2023-02-13T03:22:05.253Z,101008.34
2023-02-13T03:25:01.409Z,101009.40
2023-02-13T03:28:09.664Z,101007.30
2023-02-13T03:30:58.759Z,101006.23
2023-02-13T03:34:02.162Z,101003.08
2023-02-13T03:37:11.864Z,100998.31
2023-02-13T03:40:11.027Z,100989.34
2023-02-13T03:43:05.260Z,100983.54
2023-02-13T03:45:55.592Z,100975.79
2023-02-13T03:48:51.488Z,100978.80
2023-02-13T03:52:06.341Z,100976.33
2023-02-13T03:55:24.005Z,100975.45
2023-02-13T03:58:17.748Z,100974.39
2023-02-13T04:00:52.019Z,100969.27
2023-02-13T04:03:49.440Z,100964.32
2023-02-13T04:06:35.052Z,100955.86
2023-02-13T04:09:07.818Z,100955.16
2023-02-13T04:12:03.149Z,100957.63
2023-02-13T04:14:59.006Z,100953.77
2023-02-13T04:17:35.310Z,100951.14
2023-02-13T04:20:06.325Z,100941.11
2023-02-13T04:22:42.287Z,100941.29
2023-02-13T04:25:18.494Z,100945.34
2023-02-13T04:28:20.210Z,100945.52
2023-02-13T04:30:50.578Z,100940.58
2023-02-13T04:33:25.077Z,100942.11
2023-02-13T04:35:55.594Z,100941.54
2023-02-13T04:38:25.204Z,100940.08
2023-02-13T04:41:01.398Z,100931.21
2023-02-13T04:43:31.262Z,100925.71
2023-02-13T04:46:00.006Z,100926.20
2023-02-13T04:48:38.735Z,100930.77
2023-02-13T04:51:09.652Z,100930.20
2023-02-13T04:53:39.512Z,100933.16
2023-02-13T04:56:13.016Z,100937.88
2023-02-13T04:58:43.500Z,100939.42
2023-02-13T05:01:15.034Z,100936.76
2023-02-13T05:03:45.914Z,100937.59
2023-02-13T05:06:20.194Z,100929.45
2023-02-13T05:08:49.441Z,100930.10
2023-02-13T05:11:26.039Z,100929.17
2023-02-13T05:14:03.647Z,100926.46
2023-02-13T05:16:35.058Z,100929.23
2023-02-13T05:19:05.800Z,100932.54
2023-02-13T05:21:55.182Z,100931.09
2023-02-13T05:24:33.670Z,100931.21
2023-02-13T05:27:10.503Z,100938.73
2023-02-13T05:29:44.052Z,100935.35
2023-02-13T05:32:16.678Z,100936.53
2023-02-13T05:34:50.868Z,100926.25
2023-02-13T05:37:19.702Z,100923.55
2023-02-13T05:39:48.125Z,100930.55
2023-02-13T05:42:17.422Z,100933.53
2023-02-13T05:44:45.809Z,100931.71
2023-02-13T05:47:17.237Z,100933.40
2023-02-13T05:49:46.465Z,100925.05
2023-02-13T05:52:18.753Z,100926.58
2023-02-13T05:54:50.134Z,100927.05
2023-02-13T05:57:25.101Z,100922.39
2023-02-13T05:59:57.429Z,100924.83
2023-02-13T06:02:29.966Z,100920.38
2023-02-13T06:05:00.138Z,100918.91
2023-02-13T06:07:32.012Z,100914.63
2023-02-13T06:10:02.352Z,100913.88
2023-02-13T06:12:44.343Z,100906.58
2023-02-13T06:15:15.056Z,100910.77
2023-02-13T06:18:02.716Z,100906.98
2023-02-13T06:20:34.358Z,100905.50
2023-02-13T06:23:07.650Z,100898.38
2023-02-13T06:25:39.052Z,100882.91
2023-02-13T06:28:13.104Z,100882.15
2023-02-13T06:30:44.612Z,100881.36
2023-02-13T06:33:18.077Z,100879.08
2023-02-13T06:35:49.003Z,100877.36
2023-02-13T06:38:22.273Z,100879.54
2023-02-13T06:41:04.979Z,100876.96
2023-02-13T06:43:39.788Z,100871.80
2023-02-13T06:46:08.713Z,100872.80
2023-02-13T06:48:41.373Z,100867.26
2023-02-13T06:54:44.677Z,100855.39
2023-02-13T06:57:14.411Z,100849.66
2023-02-13T06:59:46.090Z,100850.04
2023-02-13T07:02:17.496Z,100843.08
2023-02-13T07:04:46.544Z,100840.31
2023-02-13T07:07:17.225Z,100838.02
2023-02-13T07:09:46.089Z,100837.39
2023-02-13T07:12:22.993Z,100829.11
2023-02-13T07:14:54.120Z,100827.16
2023-02-13T07:17:30.310Z,100820.98
2023-02-13T07:22:44.988Z,100812.72
2023-02-13T07:25:16.778Z,100810.50
2023-02-13T07:27:49.866Z,100809.79
2023-02-13T07:30:24.097Z,100805.41
2023-02-13T07:32:54.734Z,100805.09
2023-02-13T07:35:25.307Z,100802.20
2023-02-13T07:37:55.842Z,100797.08
2023-02-13T07:40:24.471Z,100795.52
2023-02-13T07:42:53.797Z,100797.78
2023-02-13T07:45:22.543Z,100801.35
2023-02-13T07:47:51.773Z,100800.10
2023-02-13T07:50:23.160Z,100799.27
2023-02-13T07:53:03.054Z,100801.79
2023-02-13T07:55:46.984Z,100796.07
2023-02-13T07:58:20.684Z,100797.10
2023-02-13T08:01:18.512Z,100794.17
2023-02-13T08:03:53.696Z,100793.35
2023-02-13T08:06:28.594Z,100787.61
2023-02-13T08:09:18.503Z,100779.48
2023-02-13T08:14:52.741Z,100779.52
2023-02-13T08:17:28.350Z,100779.50
2023-02-13T08:19:57.211Z,100781.36
2023-02-13T08:22:28.537Z,100778.90
2023-02-13T08:24:57.932Z,100775.95
2023-02-13T08:27:29.364Z,100776.57
2023-02-13T08:30:06.164Z,100769.96
2023-02-13T08:32:53.111Z,100766.88
2023-02-13T08:35:26.996Z,100766.06
2023-02-13T08:37:56.888Z,100765.70
2023-02-13T08:40:28.648Z,100764.69
2023-02-13T08:43:05.279Z,100759.95
2023-02-13T08:45:45.628Z,100762.63
2023-02-13T08:48:14.294Z,100761.15
2023-02-13T08:50:46.523Z,100762.75
2023-02-13T08:53:24.143Z,100768.07
2023-02-13T08:56:01.266Z,100761.10
2023-02-13T08:58:38.026Z,100758.60
2023-02-13T09:01:16.802Z,100761.00
2023-02-13T09:04:25.714Z,100756.48
2023-02-13T09:06:55.460Z,100762.23
2023-02-13T09:09:32.958Z,100764.00
2023-02-13T09:12:03.174Z,100764.90
2023-02-13T09:14:37.447Z,100761.09
2023-02-13T09:17:20.123Z,100759.34
2023-02-13T09:19:52.191Z,100751.55
2023-02-13T09:22:22.939Z,100746.69
2023-02-13T09:24:51.930Z,100737.02
2023-02-13T09:27:25.703Z,100730.14
2023-02-13T09:30:06.766Z,100726.31
2023-02-13T09:32:39.993Z,100723.87
2023-02-13T09:35:09.481Z,100715.70
2023-02-13T09:37:44.254Z,100711.73
2023-02-13T09:40:41.607Z,100704.35
2023-02-13T09:43:30.930Z,100697.50
2023-02-13T09:46:34.441Z,100690.21
2023-02-13T09:49:11.833Z,100685.59
2023-02-13T09:51:42.091Z,100686.41
2023-02-13T09:54:19.369Z,100683.14
2023-02-13T09:57:33.407Z,100680.71
2023-02-13T10:00:20.217Z,100687.71
2023-02-13T10:03:10.239Z,100682.29
2023-02-13T10:05:58.053Z,100679.66
2023-02-13T10:08:52.872Z,100665.91
2023-02-13T10:11:47.523Z,100662.59
2023-02-13T10:14:19.188Z,100665.86
2023-02-13T10:17:26.771Z,100673.27
2023-02-13T10:20:02.828Z,100670.88
2023-02-13T10:22:37.100Z,100669.55
2023-02-13T10:25:18.206Z,100669.10
2023-02-13T10:27:54.574Z,100662.19
2023-02-13T10:30:37.302Z,100660.73
2023-02-13T10:33:20.489Z,100657.95
2023-02-13T10:36:04.008Z,100658.95
2023-02-13T10:39:11.809Z,100652.89
2023-02-13T10:41:59.834Z,100654.19
2023-02-13T10:44:34.783Z,100646.08
2023-02-13T10:47:42.233Z,100649.48
2023-02-13T10:50:27.555Z,100653.33
2023-02-13T10:52:58.043Z,100659.95
2023-02-13T10:55:55.705Z,100654.26
2023-02-13T10:58:25.817Z,100657.00
2023-02-13T11:01:17.149Z,100650.64
2023-02-13T11:03:48.423Z,100650.49
2023-02-13T11:06:19.447Z,100645.45
2023-02-13T11:08:51.737Z,100647.45
2023-02-13T11:11:33.251Z,100642.59
2023-02-13T11:14:34.568Z,100646.79
2023-02-13T11:17:16.281Z,100645.56
2023-02-13T11:19:56.555Z,100646.63
2023-02-13T11:22:49.640Z,100649.72
2023-02-13T11:25:26.274Z,100645.42
2023-02-13T11:28:17.940Z,100649.16
2023-02-13T11:30:49.374Z,100642.30
2023-02-13T11:33:40.126Z,100636.95
2023-02-13T11:36:17.561Z,100637.61
2023-02-13T11:38:46.975Z,100632.15
2023-02-13T11:41:30.329Z,100630.17
2023-02-13T11:44:04.725Z,100626.58
2023-02-13T11:46:47.534Z,100627.95
2023-02-13T11:49:23.707Z,100620.93
2023-02-13T11:51:57.838Z,100614.71
2023-02-13T11:54:47.794Z,100612.80
2023-02-13T11:57:22.098Z,100604.48
2023-02-13T11:59:54.583Z,100604.43
2023-02-13T12:02:25.609Z,100593.66
2023-02-13T12:04:56.971Z,100590.13
2023-02-13T12:07:30.505Z,100588.36
2023-02-13T12:10:09.916Z,100581.92
2023-02-13T12:12:48.847Z,100579.11
2023-02-13T12:15:23.480Z,100573.95
2023-02-13T12:18:26.729Z,100568.66
2023-02-13T12:21:01.463Z,100569.69
2023-02-13T12:23:51.394Z,100571.36
2023-02-13T12:26:43.525Z,100568.39
2023-02-13T12:29:38.625Z,100570.02
2023-02-13T12:32:17.776Z,100561.55
2023-02-13T12:35:13.165Z,100558.42
2023-02-13T12:38:36.662Z,100553.34
2023-02-13T12:41:17.535Z,100545.79
2023-02-13T12:44:30.807Z,100545.36
2023-02-13T12:47:32.590Z,100540.89
2023-02-13T12:50:29.462Z,100540.58
2023-02-13T12:53:08.268Z,100541.13
2023-02-13T12:55:54.728Z,100545.24
2023-02-13T12:58:45.122Z,100539.64
2023-02-13T13:01:29.201Z,100538.30
2023-02-13T13:04:50.180Z,100541.23
2023-02-13T13:07:31.598Z,100533.12
2023-02-13T13:10:15.304Z,100515.73
2023-02-13T13:13:08.140Z,100516.34
2023-02-13T13:15:56.018Z,100507.96
2023-02-13T13:18:31.385Z,100510.05
2023-02-13T13:21:34.484Z,100508.15
2023-02-13T13:24:21.021Z,100505.59
2023-02-13T13:26:50.484Z,100509.66
2023-02-13T13:29:24.416Z,100511.84
2023-02-13T13:32:07.232Z,100512.64
2023-02-13T13:35:01.779Z,100510.13
2023-02-13T13:38:02.754Z,100507.98
2023-02-13T13:40:40.801Z,100510.64
2023-02-13T13:43:54.324Z,100511.65
2023-02-13T13:46:30.650Z,100501.15
2023-02-13T13:49:40.762Z,100496.55
2023-02-13T13:52:37.630Z,100488.73
2023-02-13T13:55:09.863Z,100481.84
2023-02-13T13:57:45.120Z,100481.95
2023-02-13T14:00:50.596Z,100480.60
2023-02-13T14:03:36.683Z,100475.05
2023-02-13T14:06:07.696Z,100469.52
2023-02-13T14:08:43.241Z,100468.56
2023-02-13T14:11:40.463Z,100463.96
2023-02-13T14:14:34.054Z,100470.35
2023-02-13T14:17:06.356Z,100476.41
2023-02-13T14:19:40.679Z,100474.01
2023-02-13T14:22:25.203Z,100472.48
2023-02-13T14:24:59.168Z,100472.02
2023-02-13T14:27:30.426Z,100469.98
2023-02-13T14:30:01.632Z,100469.50
2023-02-13T14:32:51.046Z,100466.98
2023-02-13T14:35:39.771Z,100465.16
2023-02-13T14:38:22.529Z,100465.67
2023-02-13T14:40:52.675Z,100465.23
2023-02-13T14:43:33.301Z,100461.83
2023-02-13T14:46:21.112Z,100464.73
2023-02-13T14:49:22.934Z,100464.04
2023-02-13T14:51:54.982Z,100459.39
2023-02-13T14:54:47.957Z,100459.50
2023-02-13T14:57:55.970Z,100460.98
2023-02-13T15:00:33.566Z,100459.71
2023-02-13T15:03:21.102Z,100453.37
2023-02-13T15:06:00.053Z,100446.77
2023-02-13T15:08:33.481Z,100438.11
2023-02-13T15:11:04.296Z,100436.40
2023-02-13T15:13:37.981Z,100437.83
2023-02-13T15:16:10.903Z,100440.70
2023-02-13T15:18:40.718Z,100436.95
2023-02-13T15:21:21.507Z,100436.04
2023-02-13T15:23:56.416Z,100439.80
2023-02-13T15:26:29.174Z,100440.30
2023-02-13T15:29:13.952Z,100440.02
2023-02-13T15:31:43.922Z,100431.80
2023-02-13T15:34:27.909Z,100422.30
2023-02-13T15:37:00.318Z,100413.84
2023-02-13T15:39:32.462Z,100412.58
2023-02-13T15:42:03.302Z,100406.61
2023-02-13T15:44:35.559Z,100407.21
2023-02-13T15:47:18.677Z,100404.28
2023-02-13T15:49:51.870Z,100398.84
2023-02-13T15:52:27.920Z,100406.39
2023-02-13T15:54:58.569Z,100398.80
2023-02-13T15:57:47.025Z,100396.96
2023-02-13T16:00:41.910Z,100398.45
2023-02-13T16:06:44.718Z,100393.03
2023-02-13T16:09:33.683Z,100394.25
2023-02-13T16:12:28.485Z,100392.80
2023-02-13T16:15:02.677Z,100397.00
2023-02-13T16:17:48.937Z,100388.39
2023-02-13T16:20:42.561Z,100380.20
2023-02-13T16:23:18.800Z,100372.25
2023-02-13T16:26:00.510Z,100366.27
2023-02-13T16:28:36.582Z,100374.48
2023-02-13T16:31:07.511Z,100376.45
2023-02-13T16:33:38.874Z,100370.98
2023-02-13T16:36:14.461Z,100377.98
2023-02-13T16:39:08.405Z,100382.12
2023-02-13T16:41:49.141Z,100379.39
2023-02-13T16:44:32.601Z,100389.91
2023-02-13T16:47:05.023Z,100395.32
2023-02-13T16:49:37.011Z,100391.77
2023-02-13T16:52:12.698Z,100387.95
2023-02-13T16:54:51.194Z,100393.95
2023-02-13T16:57:24.299Z,100390.96
2023-02-13T17:00:17.485Z,100385.55
2023-02-13T17:02:46.839Z,100380.75
2023-02-13T17:05:27.436Z,100383.03
2023-02-13T17:07:59.052Z,100391.72
2023-02-13T17:10:34.270Z,100392.20
2023-02-13T17:13:13.187Z,100395.51
2023-02-13T17:15:47.025Z,100390.63
2023-02-13T17:18:21.589Z,100376.71
2023-02-13T17:20:51.978Z,100374.82
2023-02-13T17:23:26.588Z,100377.86
2023-02-13T17:25:59.619Z,100375.63
2023-02-13T17:28:39.952Z,100377.31
2023-02-13T17:31:15.045Z,100377.53
2023-02-13T17:33:45.597Z,100377.39
2023-02-13T17:36:34.871Z,100375.20
2023-02-13T17:39:08.991Z,100379.33
2023-02-13T17:41:43.205Z,100380.95
2023-02-13T17:44:14.347Z,100375.09
2023-02-13T17:46:47.222Z,100374.66
2023-02-13T17:49:17.974Z,100367.35
2023-02-13T17:51:50.330Z,100363.37
2023-02-13T17:54:21.591Z,100355.77
2023-02-13T17:56:57.323Z,100354.99
2023-02-13T17:59:29.304Z,100350.71
2023-02-13T18:01:58.997Z,100351.08
2023-02-13T18:04:30.296Z,100346.91
2023-02-13T18:07:00.576Z,100344.96
2023-02-13T18:09:35.610Z,100336.75
2023-02-13T18:12:34.653Z,100340.95
2023-02-13T18:15:05.204Z,100342.95
2023-02-13T18:17:34.858Z,100336.17
2023-02-13T18:20:09.889Z,100342.84
2023-02-13T18:22:39.081Z,100340.34
2023-02-13T18:25:08.854Z,100332.50
2023-02-13T18:28:19.279Z,100328.14
2023-02-13T18:30:53.814Z,100325.55
2023-02-13T18:33:22.653Z,100324.67
2023-02-13T18:36:03.163Z,100324.80
2023-02-13T18:38:33.677Z,100325.34
2023-02-13T18:41:04.686Z,100318.63
2023-02-13T18:43:35.831Z,100313.14
2023-02-13T18:46:05.418Z,100311.81
2023-02-13T18:48:37.887Z,100310.70
2023-02-13T18:51:12.612Z,100313.25
2023-02-13T18:53:51.325Z,100317.55
2023-02-13T18:56:24.184Z,100323.73
2023-02-13T18:58:58.664Z,100321.33
2023-02-13T19:01:35.092Z,100322.23
2023-02-13T19:04:06.488Z,100320.07
2023-02-13T19:06:41.129Z,100313.39
2023-02-13T19:09:12.318Z,100293.93
2023-02-13T19:11:42.943Z,100284.65
2023-02-13T19:14:13.448Z,100278.26
2023-02-13T19:16:47.083Z,100271.75
2023-02-13T19:19:16.422Z,100269.11
2023-02-13T19:21:45.826Z,100259.66
2023-02-13T19:24:15.673Z,100250.47
2023-02-13T19:26:45.354Z,100259.48
2023-02-13T19:29:21.077Z,100266.31
2023-02-13T19:31:52.073Z,100271.84
2023-02-13T19:34:21.973Z,100264.59
2023-02-13T19:39:38.314Z,100233.88
2023-02-13T19:42:10.841Z,100238.55
2023-02-13T19:44:45.317Z,100232.85
2023-02-13T19:47:39.574Z,100226.38
2023-02-13T19:50:09.376Z,100215.29
2023-02-13T19:52:42.200Z,100210.74
2023-02-13T19:55:14.538Z,100203.43
2023-02-13T19:57:52.466Z,100195.95
2023-02-13T20:00:27.626Z,100203.77
2023-02-13T20:03:13.663Z,100197.69
2023-02-13T20:06:13.535Z,100192.54
2023-02-13T20:08:52.453Z,100190.41
2023-02-13T20:11:22.732Z,100189.77
2023-02-13T20:13:57.029Z,100195.36
2023-02-13T20:16:28.885Z,100196.48
2023-02-13T20:19:05.887Z,100190.19
2023-02-13T20:21:37.003Z,100182.77
2023-02-13T20:24:07.239Z,100185.21
2023-02-13T20:26:39.612Z,100184.05
2023-02-13T20:29:12.452Z,100168.13
2023-02-13T20:31:53.061Z,100159.40
2023-02-13T20:34:21.689Z,100163.38
2023-02-13T20:36:57.606Z,100168.91
